createdAt,value
2023-03-26T00:02:03.404Z,1.40
2023-03-26T00:04:33.552Z,1.07
2023-03-26T00:07:01.809Z,1.50
2023-03-26T00:09:30.426Z,1.30
2023-03-26T00:11:58.252Z,1.37
2023-03-26T00:14:26.603Z,1.20
2023-03-26T00:16:54.469Z,1.10
2023-03-26T00:19:23.742Z,1.10
2023-03-26T00:21:52.433Z,1.17
2023-03-26T00:24:20.193Z,1.07
2023-03-26T00:26:53.329Z,2.03
2023-03-26T00:29:22.928Z,0.93
2023-03-26T00:31:50.856Z,1.20
2023-03-26T00:34:19.246Z,1.23
2023-03-26T00:36:54.870Z,1.10
2023-03-26T00:39:23.858Z,1.10
2023-03-26T00:41:54.261Z,1.20
2023-03-26T00:44:22.813Z,1.53
2023-03-26T00:46:50.571Z,1.40
2023-03-26T00:49:18.702Z,1.30
2023-03-26T00:51:47.867Z,1.20
2023-03-26T00:54:15.717Z,1.10
2023-03-26T00:56:43.546Z,1.30
2023-03-26T00:59:11.644Z,1.03
2023-03-26T01:01:39.784Z,1.30
2023-03-26T01:04:30.823Z,1.00
2023-03-26T01:07:04.031Z,1.27
2023-03-26T01:09:35.684Z,1.30
2023-03-26T01:12:06.650Z,1.20
2023-03-26T01:14:34.508Z,1.20
2023-03-26T01:17:04.593Z,1.37
2023-03-26T01:19:38.460Z,1.30
2023-03-26T01:22:11.095Z,1.20
2023-03-26T01:24:40.870Z,1.10
2023-03-26T01:27:24.262Z,1.10
2023-03-26T01:29:55.621Z,1.50
2023-03-26T01:32:33.418Z,1.00
2023-03-26T01:35:18.941Z,1.13
2023-03-26T01:38:02.503Z,1.10
2023-03-26T01:40:42.807Z,1.37
2023-03-26T01:43:18.764Z,1.10
2023-03-26T01:45:50.668Z,0.90
2023-03-26T01:48:18.833Z,1.30
2023-03-26T01:50:48.658Z,1.17
2023-03-26T01:53:16.776Z,1.10
2023-03-26T01:55:56.062Z,1.23
2023-03-26T01:58:32.537Z,1.43
2023-03-26T02:01:13.857Z,1.10
2023-03-26T02:03:47.848Z,1.27
2023-03-26T02:06:21.352Z,1.03
2023-03-26T02:08:53.899Z,1.10
2023-03-26T02:11:23.373Z,1.30
2023-03-26T02:13:52.344Z,1.20
2023-03-26T02:16:21.641Z,1.20
2023-03-26T02:18:55.723Z,1.40
2023-03-26T02:21:26.025Z,1.40
2023-03-26T02:24:02.553Z,1.43
2023-03-26T02:26:37.576Z,1.20
2023-03-26T02:29:12.302Z,1.17
2023-03-26T02:31:43.304Z,1.37
2023-03-26T02:34:11.240Z,1.50
2023-03-26T02:36:42.853Z,1.60
2023-03-26T02:39:11.896Z,1.33
2023-03-26T02:41:41.366Z,1.40
2023-03-26T02:44:11.568Z,1.27
2023-03-26T02:46:57.914Z,1.30
2023-03-26T02:49:44.630Z,1.30
2023-03-26T02:52:18.621Z,1.30
2023-03-26T02:54:48.095Z,1.20
2023-03-26T02:57:20.733Z,1.27
2023-03-26T03:00:18.321Z,1.33
2023-03-26T03:02:47.817Z,1.37
2023-03-26T03:05:28.824Z,1.47
2023-03-26T03:08:13.275Z,1.30
2023-03-26T03:10:58.700Z,1.50
2023-03-26T03:13:39.842Z,1.57
2023-03-26T03:16:08.916Z,2.13
2023-03-26T03:18:37.549Z,1.40
2023-03-26T03:21:06.896Z,1.43
2023-03-26T03:23:34.768Z,1.70
2023-03-26T03:26:15.540Z,1.90
2023-03-26T03:28:48.026Z,1.43
2023-03-26T03:31:17.500Z,1.47
2023-03-26T03:33:46.467Z,2.40
2023-03-26T03:36:21.048Z,6.77
2023-03-26T03:39:02.392Z,2.23
2023-03-26T03:41:31.134Z,1.70
2023-03-26T03:44:02.936Z,1.83
2023-03-26T03:46:33.107Z,1.47
2023-03-26T03:49:01.095Z,1.70
2023-03-26T03:51:36.083Z,1.57
2023-03-26T03:54:08.482Z,1.50
2023-03-26T03:56:56.456Z,1.50
2023-03-26T03:59:39.017Z,2.13
2023-03-26T04:02:21.272Z,2.80
2023-03-26T04:04:57.488Z,2.10
2023-03-26T04:07:25.727Z,2.10
2023-03-26T04:10:17.219Z,2.13
2023-03-26T04:13:03.633Z,1.70
2023-03-26T04:15:48.495Z,1.67
2023-03-26T04:18:16.659Z,1.80
2023-03-26T04:20:47.302Z,1.57
2023-03-26T04:23:22.475Z,4.47
2023-03-26T04:25:57.904Z,2.07
2023-03-26T04:28:46.302Z,1.50
2023-03-26T04:31:24.171Z,1.20
2023-03-26T04:33:55.095Z,1.47
2023-03-26T04:36:28.446Z,1.47
2023-03-26T04:38:58.282Z,1.30
2023-03-26T04:41:44.670Z,1.47
2023-03-26T04:44:22.281Z,1.70
2023-03-26T04:46:57.022Z,1.80
2023-03-26T04:49:41.270Z,1.93
2023-03-26T04:52:11.771Z,1.90
2023-03-26T04:54:58.586Z,1.97
2023-03-26T04:57:32.592Z,2.30
2023-03-26T05:00:15.305Z,2.30
2023-03-26T05:02:49.714Z,2.30
2023-03-26T05:05:18.906Z,2.10
2023-03-26T05:07:47.021Z,2.40
2023-03-26T05:10:20.235Z,2.50
2023-03-26T05:12:59.129Z,2.80
2023-03-26T05:15:30.378Z,2.30
2023-03-26T05:17:59.650Z,1.77
2023-03-26T05:20:32.456Z,1.70
2023-03-26T05:23:00.362Z,2.00
2023-03-26T05:25:34.799Z,1.80
2023-03-26T05:28:04.244Z,1.80
2023-03-26T05:30:47.501Z,2.07
2023-03-26T05:33:17.780Z,1.60
2023-03-26T05:36:01.394Z,1.80
2023-03-26T05:38:31.919Z,2.27
2023-03-26T05:41:01.259Z,7.23
2023-03-26T05:43:29.251Z,3.90
2023-03-26T05:46:09.244Z,2.10
2023-03-26T05:48:39.225Z,2.27
2023-03-26T05:51:07.994Z,1.87
2023-03-26T05:53:36.391Z,1.50
2023-03-26T05:56:22.799Z,2.37
2023-03-26T05:59:09.920Z,3.93
2023-03-26T06:01:56.533Z,2.90
2023-03-26T06:04:45.770Z,2.03
2023-03-26T06:07:33.806Z,1.90
2023-03-26T06:10:11.253Z,1.87
2023-03-26T06:12:46.657Z,1.80
2023-03-26T06:15:14.594Z,1.80
2023-03-26T06:17:59.720Z,1.70
2023-03-26T06:20:46.613Z,1.60
2023-03-26T06:23:32.603Z,1.67
2023-03-26T06:26:16.184Z,1.60
2023-03-26T06:28:46.709Z,2.00
2023-03-26T06:31:33.333Z,2.07
2023-03-26T06:34:15.811Z,1.87
2023-03-26T06:36:45.102Z,1.80
2023-03-26T06:39:13.081Z,1.87
2023-03-26T06:41:49.480Z,1.80
2023-03-26T06:44:34.970Z,1.80
2023-03-26T06:47:35.103Z,1.70
2023-03-26T06:50:21.948Z,1.90
2023-03-26T06:53:08.089Z,2.07
2023-03-26T06:55:48.315Z,2.30
2023-03-26T06:58:36.457Z,2.27
2023-03-26T07:01:22.768Z,2.80
2023-03-26T07:04:09.088Z,2.17
2023-03-26T07:06:55.908Z,2.77
2023-03-26T07:09:43.531Z,3.43
2023-03-26T07:12:11.359Z,2.37
2023-03-26T07:14:59.033Z,2.80
2023-03-26T07:17:47.128Z,2.43
2023-03-26T07:20:24.370Z,4.03
2023-03-26T07:22:53.638Z,3.50
2023-03-26T07:25:48.225Z,3.67
2023-03-26T07:28:25.483Z,4.30
2023-03-26T07:31:27.159Z,3.20
2023-03-26T07:34:43.133Z,2.30
2023-03-26T07:37:46.588Z,4.00
2023-03-26T07:41:03.593Z,3.10
2023-03-26T07:43:47.332Z,2.37
2023-03-26T07:46:39.262Z,2.00
2023-03-26T07:49:32.711Z,2.10
2023-03-26T07:52:11.213Z,1.70
2023-03-26T07:55:08.178Z,1.80
2023-03-26T07:58:22.067Z,1.60
2023-03-26T08:01:43.605Z,2.10
2023-03-26T08:04:38.439Z,2.00
2023-03-26T08:07:48.436Z,2.07
2023-03-26T08:10:31.489Z,1.67
2023-03-26T08:13:14.950Z,1.60
2023-03-26T08:15:49.788Z,1.47
2023-03-26T08:18:28.249Z,1.50
2023-03-26T08:21:01.451Z,1.97
2023-03-26T08:23:38.076Z,2.00
2023-03-26T08:26:29.434Z,2.70
2023-03-26T08:29:11.457Z,1.80
2023-03-26T08:31:42.194Z,1.30
2023-03-26T08:34:12.522Z,1.63
2023-03-26T08:36:40.435Z,1.50
2023-03-26T08:39:08.929Z,1.87
2023-03-26T08:42:10.228Z,1.60
2023-03-26T08:45:16.687Z,1.60
2023-03-26T08:48:34.900Z,1.47
2023-03-26T08:51:30.677Z,1.47
2023-03-26T08:54:41.182Z,1.27
2023-03-26T08:57:44.707Z,1.30
2023-03-26T09:00:45.740Z,1.60
2023-03-26T09:03:55.139Z,1.50
2023-03-26T09:06:52.120Z,1.70
2023-03-26T09:09:58.235Z,1.40
2023-03-26T09:13:02.501Z,1.50
2023-03-26T09:15:59.741Z,1.43
2023-03-26T09:19:01.212Z,1.33
2023-03-26T09:21:55.894Z,1.90
2023-03-26T09:24:57.985Z,1.80
2023-03-26T09:27:39.132Z,2.20
2023-03-26T09:30:50.777Z,2.10
2023-03-26T09:33:33.733Z,2.50
2023-03-26T09:36:21.829Z,3.00
2023-03-26T09:39:09.975Z,1.90
2023-03-26T09:41:43.435Z,1.87
2023-03-26T09:44:52.329Z,2.20
2023-03-26T09:47:53.879Z,4.43
2023-03-26T09:50:42.920Z,4.60
2023-03-26T09:53:31.874Z,4.03
2023-03-26T09:56:14.879Z,2.27
2023-03-26T09:59:04.102Z,1.90
2023-03-26T10:01:41.569Z,1.90
2023-03-26T10:04:43.049Z,4.33
2023-03-26T10:07:30.104Z,2.83
2023-03-26T10:10:03.791Z,3.57
2023-03-26T10:12:38.270Z,3.70
2023-03-26T10:15:25.039Z,3.80
2023-03-26T10:18:26.993Z,3.23
2023-03-26T10:20:59.918Z,2.87
2023-03-26T10:23:57.791Z,2.97
2023-03-26T10:27:09.284Z,3.57
2023-03-26T10:30:04.480Z,3.20
2023-03-26T10:32:37.889Z,3.10
2023-03-26T10:35:23.364Z,3.23
2023-03-26T10:38:13.722Z,2.63
2023-03-26T10:40:53.548Z,2.27
2023-03-26T10:44:08.467Z,2.20
2023-03-26T10:47:04.427Z,2.00
2023-03-26T10:49:52.240Z,1.87
2023-03-26T10:52:23.448Z,1.60
2023-03-26T10:54:56.846Z,1.63
2023-03-26T10:57:39.430Z,1.63
2023-03-26T11:00:23.282Z,1.53
2023-03-26T11:03:11.257Z,1.30
2023-03-26T11:05:52.966Z,1.33
2023-03-26T11:08:31.363Z,1.20
2023-03-26T11:11:07.242Z,1.10
2023-03-26T11:13:47.605Z,1.50
2023-03-26T11:16:23.614Z,1.00
2023-03-26T11:18:59.827Z,1.30
2023-03-26T11:21:35.580Z,1.00
2023-03-26T11:24:33.444Z,1.10
2023-03-26T11:27:15.362Z,1.10
2023-03-26T11:29:52.800Z,0.80
2023-03-26T11:32:25.704Z,1.23
2023-03-26T11:35:00.543Z,1.30
2023-03-26T11:37:34.261Z,0.90
2023-03-26T11:40:06.607Z,1.10
2023-03-26T11:42:34.456Z,1.20
2023-03-26T11:45:06.466Z,1.20
2023-03-26T11:47:43.835Z,1.10
2023-03-26T11:50:18.483Z,0.93
2023-03-26T11:52:47.123Z,0.97
2023-03-26T11:55:15.809Z,0.90
2023-03-26T11:57:50.081Z,0.87
2023-03-26T12:00:21.246Z,1.20
2023-03-26T12:02:50.943Z,1.17
2023-03-26T12:05:21.127Z,1.67
2023-03-26T12:07:54.704Z,1.40
2023-03-26T12:10:26.007Z,1.30
2023-03-26T12:12:57.222Z,1.20
2023-03-26T12:15:26.073Z,0.40
2023-03-26T12:17:57.916Z,0.20
2023-03-26T12:20:38.542Z,0.40
2023-03-26T12:23:08.095Z,0.20
2023-03-26T12:25:38.797Z,0.30
2023-03-26T12:28:18.956Z,0.30
2023-03-26T12:30:54.823Z,0.47
2023-03-26T12:33:27.939Z,0.20
2023-03-26T12:36:00.483Z,0.20
2023-03-26T12:38:37.357Z,0.40
2023-03-26T12:41:07.898Z,0.50
2023-03-26T12:44:53.000Z,0.50
2023-03-26T12:47:57.244Z,0.60
2023-03-26T12:49:23.049Z,0.63
2023-03-26T12:51:56.341Z,0.90
2023-03-26T12:54:40.373Z,0.80
2023-03-26T12:57:20.231Z,0.60
2023-03-26T13:00:32.814Z,0.70
2023-03-26T13:03:12.555Z,0.80
2023-03-26T13:05:57.508Z,0.77
2023-03-26T13:08:42.481Z,0.80
2023-03-26T13:11:18.473Z,0.70
2023-03-26T13:13:57.867Z,0.60
2023-03-26T13:16:34.184Z,0.70
2023-03-26T13:19:08.723Z,0.50
2023-03-26T13:21:51.241Z,0.90
2023-03-26T13:24:35.659Z,0.60
2023-03-26T13:27:27.998Z,2.67
2023-03-26T13:30:03.459Z,0.53
2023-03-26T13:32:46.862Z,0.30
2023-03-26T13:35:28.290Z,0.57
2023-03-26T13:38:05.817Z,0.33
2023-03-26T13:40:43.463Z,0.53
2023-03-26T13:43:23.457Z,1.00
2023-03-26T13:45:57.560Z,0.63
2023-03-26T13:48:29.442Z,0.90
2023-03-26T13:51:08.583Z,0.50
2023-03-26T13:53:44.642Z,0.80
2023-03-26T13:56:16.883Z,0.70
2023-03-26T13:58:48.994Z,0.60
2023-03-26T14:01:21.730Z,0.60
2023-03-26T14:03:57.000Z,0.70
2023-03-26T14:06:35.803Z,0.87
2023-03-26T14:09:12.476Z,0.83
2023-03-26T14:11:51.176Z,0.93
2023-03-26T14:14:24.771Z,1.10
2023-03-26T14:16:59.178Z,0.80
2023-03-26T14:19:56.679Z,0.80
2023-03-26T14:22:33.465Z,0.90
2023-03-26T14:25:21.058Z,0.70
2023-03-26T14:28:03.022Z,1.27
2023-03-26T14:30:56.632Z,1.13
2023-03-26T14:33:51.350Z,1.10
2023-03-26T14:36:34.783Z,0.73
2023-03-26T14:39:31.822Z,0.90
2023-03-26T14:42:08.839Z,1.27
2023-03-26T14:45:01.449Z,1.13
2023-03-26T14:47:30.304Z,1.27
2023-03-26T14:50:42.602Z,1.40
2023-03-26T14:53:21.158Z,1.27
2023-03-26T14:56:12.032Z,1.30
2023-03-26T14:59:23.003Z,1.60
2023-03-26T15:02:24.415Z,2.93
2023-03-26T15:05:24.432Z,5.37
2023-03-26T15:08:23.702Z,3.20
2023-03-26T15:11:22.336Z,2.17
2023-03-26T15:14:02.741Z,2.40
2023-03-26T15:16:53.669Z,3.40
2023-03-26T15:19:55.002Z,2.00
2023-03-26T15:22:52.950Z,1.90
2023-03-26T15:26:03.783Z,1.90
2023-03-26T15:29:03.152Z,4.77
2023-03-26T15:32:02.230Z,4.90
2023-03-26T15:34:59.360Z,1.50
2023-03-26T15:37:52.845Z,1.30
2023-03-26T15:40:38.061Z,1.33
2023-03-26T15:43:12.882Z,1.40
2023-03-26T15:45:43.563Z,1.93
2023-03-26T15:48:37.725Z,2.60
2023-03-26T15:51:31.028Z,2.43
2023-03-26T15:54:05.154Z,1.60
2023-03-26T15:57:07.200Z,1.70
2023-03-26T15:59:43.467Z,1.83
2023-03-26T16:02:26.171Z,1.97
2023-03-26T16:04:57.399Z,2.10
2023-03-26T16:07:40.981Z,2.40
2023-03-26T16:10:22.057Z,2.30
2023-03-26T16:17:06.699Z,1.67
2023-03-26T16:19:51.881Z,1.83
2023-03-26T16:22:49.024Z,1.80
2023-03-26T16:25:33.347Z,1.50
2023-03-26T16:28:27.421Z,1.40
2023-03-26T16:31:37.878Z,1.67
2023-03-26T16:34:31.361Z,1.60
2023-03-26T16:37:02.825Z,1.53
2023-03-26T16:39:43.633Z,1.30
2023-03-26T16:42:42.110Z,1.53
2023-03-26T16:45:25.850Z,1.43
2023-03-26T16:48:07.818Z,1.73
2023-03-26T16:50:48.588Z,1.50
2023-03-26T16:53:35.922Z,1.60
2023-03-26T16:56:14.750Z,1.20
2023-03-26T16:58:54.993Z,1.30
2023-03-26T17:01:35.146Z,1.60
2023-03-26T17:04:12.922Z,1.50
2023-03-26T17:07:05.605Z,1.00
2023-03-26T17:09:52.406Z,0.97
2023-03-26T17:12:38.680Z,1.30
2023-03-26T17:15:27.203Z,1.00
2023-03-26T17:18:14.136Z,1.10
2023-03-26T17:20:51.360Z,1.00
2023-03-26T17:23:31.564Z,0.90
2023-03-26T17:26:21.545Z,0.70
2023-03-26T17:29:20.464Z,0.80
2023-03-26T17:31:59.226Z,0.60
2023-03-26T17:34:46.757Z,0.70
2023-03-26T17:37:41.165Z,1.30
2023-03-26T17:40:51.576Z,0.60
2023-03-26T17:43:41.389Z,0.60
2023-03-26T17:46:22.830Z,1.10
2023-03-26T17:48:57.911Z,1.53
2023-03-26T17:51:48.072Z,1.60
2023-03-26T17:54:24.228Z,0.97
2023-03-26T17:56:54.735Z,0.80
2023-03-26T17:59:26.128Z,1.00
2023-03-26T18:01:59.540Z,0.87
2023-03-26T18:04:35.295Z,0.60
2023-03-26T18:07:24.359Z,1.10
2023-03-26T18:10:15.844Z,0.63
2023-03-26T18:12:56.088Z,0.97
2023-03-26T18:15:35.962Z,0.70
2023-03-26T18:18:17.910Z,0.60
2023-03-26T18:20:47.852Z,0.70
2023-03-26T18:23:23.878Z,1.00
2023-03-26T18:26:01.377Z,0.70
2023-03-26T18:28:36.048Z,1.03
2023-03-26T18:31:28.869Z,3.77
2023-03-26T18:34:11.252Z,1.20
2023-03-26T18:36:41.481Z,0.60
2023-03-26T18:43:34.485Z,0.80
2023-03-26T18:46:06.968Z,0.70
2023-03-26T18:48:34.846Z,0.80
2023-03-26T18:51:08.442Z,1.10
2023-03-26T18:53:40.009Z,1.33
2023-03-26T18:56:21.513Z,0.97
2023-03-26T18:58:55.621Z,0.77
2023-03-26T19:01:26.256Z,0.63
2023-03-26T19:03:55.307Z,0.70
2023-03-26T19:06:28.385Z,0.80
2023-03-26T19:09:51.701Z,0.77
2023-03-26T19:12:22.812Z,0.93
2023-03-26T19:14:59.264Z,1.00
2023-03-26T19:17:32.480Z,0.97
2023-03-26T19:20:00.613Z,1.17
2023-03-26T19:22:31.434Z,0.80
2023-03-26T19:25:01.630Z,1.00
2023-03-26T19:27:30.220Z,1.00
2023-03-26T19:29:58.827Z,0.90
2023-03-26T19:32:32.390Z,1.10
2023-03-26T19:35:02.100Z,1.00
2023-03-26T19:37:32.402Z,1.20
2023-03-26T19:40:14.253Z,1.30
2023-03-26T19:42:45.104Z,1.10
2023-03-26T19:45:17.545Z,1.00
2023-03-26T19:47:56.934Z,1.23
2023-03-26T19:50:30.664Z,1.20
2023-03-26T19:53:17.806Z,1.30
2023-03-26T19:55:55.517Z,1.20
2023-03-26T19:58:23.607Z,1.17
2023-03-26T20:00:51.654Z,1.17
2023-03-26T20:03:25.418Z,1.73
2023-03-26T20:05:53.238Z,1.23
2023-03-26T20:08:27.890Z,1.20
2023-03-26T20:10:57.968Z,1.93
2023-03-26T20:13:26.456Z,2.30
2023-03-26T20:16:06.017Z,1.40
2023-03-26T20:18:34.805Z,1.00
2023-03-26T20:21:02.708Z,1.30
2023-03-26T20:23:31.946Z,1.10
2023-03-26T20:25:59.851Z,1.80
2023-03-26T20:28:27.692Z,1.67
2023-03-26T20:30:55.963Z,1.73
2023-03-26T20:33:26.604Z,1.50
2023-03-26T20:35:55.389Z,1.23
2023-03-26T20:38:36.655Z,1.20
2023-03-26T20:41:12.993Z,1.60
2023-03-26T20:43:40.901Z,2.00
2023-03-26T20:46:12.304Z,2.10
2023-03-26T20:48:40.083Z,3.13
2023-03-26T20:51:07.981Z,3.50
2023-03-26T20:53:35.759Z,2.70
2023-03-26T20:56:03.880Z,1.40
2023-03-26T20:58:33.211Z,0.90
2023-03-26T21:01:02.266Z,0.83
2023-03-26T21:03:30.692Z,0.77
2023-03-26T21:06:01.838Z,0.80
2023-03-26T21:08:35.341Z,1.00
2023-03-26T21:11:04.776Z,0.93
2023-03-26T21:13:40.166Z,0.70
2023-03-26T21:16:11.051Z,0.93
2023-03-26T21:18:39.717Z,0.70
2023-03-26T21:21:21.340Z,0.90
2023-03-26T21:23:59.378Z,0.90
2023-03-26T21:26:33.914Z,0.90
2023-03-26T21:29:11.800Z,0.90
2023-03-26T21:31:40.500Z,0.97
2023-03-26T21:34:09.783Z,0.80
2023-03-26T21:36:38.128Z,0.83
2023-03-26T21:39:06.584Z,0.90
2023-03-26T21:41:44.199Z,1.00
2023-03-26T21:44:14.330Z,0.80
2023-03-26T21:46:43.134Z,0.90
2023-03-26T21:49:12.051Z,0.90
2023-03-26T21:51:40.732Z,0.80
2023-03-26T21:54:24.855Z,1.00
2023-03-26T21:57:01.940Z,0.80
2023-03-26T21:59:40.288Z,0.83
2023-03-26T22:02:13.888Z,0.90
2023-03-26T22:04:47.283Z,1.07
2023-03-26T22:07:20.622Z,0.93
2023-03-26T22:09:49.060Z,0.90
2023-03-26T22:12:17.719Z,0.90
2023-03-26T22:14:46.923Z,0.90
2023-03-26T22:17:15.776Z,0.97
2023-03-26T22:19:43.593Z,1.10
2023-03-26T22:22:12.440Z,0.70
2023-03-26T22:24:40.341Z,0.90
2023-03-26T22:27:08.382Z,1.00
2023-03-26T22:29:36.410Z,0.80
2023-03-26T22:32:06.266Z,0.90
2023-03-26T22:34:35.014Z,0.90
2023-03-26T22:37:02.836Z,0.90
2023-03-26T22:39:30.781Z,0.83
2023-03-26T22:41:58.667Z,1.10
2023-03-26T22:44:27.031Z,1.10
2023-03-26T22:46:56.885Z,1.00
2023-03-26T22:49:27.452Z,0.90
2023-03-26T22:51:55.297Z,0.90
2023-03-26T22:54:23.044Z,0.97
2023-03-26T22:56:52.210Z,1.00
2023-03-26T22:59:20.048Z,1.20
2023-03-26T23:01:47.858Z,1.00
2023-03-26T23:04:31.520Z,0.70
2023-03-26T23:07:01.700Z,0.80
2023-03-26T23:09:29.647Z,0.90
2023-03-26T23:11:58.023Z,0.90
2023-03-26T23:14:25.883Z,0.73
2023-03-26T23:16:53.677Z,1.10
2023-03-26T23:19:21.594Z,1.00
2023-03-26T23:21:49.348Z,1.00
2023-03-26T23:24:18.677Z,0.97
2023-03-26T23:29:17.329Z,1.10
2023-03-26T23:31:45.250Z,0.97
2023-03-26T23:34:13.592Z,1.07
2023-03-26T23:36:41.768Z,1.13
2023-03-26T23:39:10.809Z,1.00
2023-03-26T23:41:40.200Z,0.90
2023-03-26T23:44:07.996Z,1.10
2023-03-26T23:46:35.788Z,0.97
2023-03-26T23:49:03.879Z,0.90
2023-03-26T23:51:32.927Z,0.90
2023-03-26T23:54:01.448Z,0.97
2023-03-26T23:56:30.374Z,0.67
2023-03-26T23:59:00.514Z,0.93
